createdAt,value
2023-02-06T00:04:43.518Z,45.76
2023-02-06T00:09:48.328Z,46.40
2023-02-06T00:14:51.747Z,45.36
2023-02-06T00:19:55.163Z,45.88
2023-02-06T00:25:00.005Z,48.73
2023-02-06T00:30:03.406Z,50.42
2023-02-06T00:35:07.418Z,50.61
2023-02-06T00:40:13.159Z,50.67
2023-02-06T00:45:16.723Z,51.01
2023-02-06T00:50:20.568Z,50.23
2023-02-06T00:55:25.444Z,51.34
2023-02-06T01:00:31.710Z,51.97
2023-02-06T01:05:35.496Z,55.10
2023-02-06T01:10:42.694Z,56.03
2023-02-06T01:15:50.784Z,57.31
2023-02-06T01:20:54.540Z,57.94
2023-02-06T01:25:59.500Z,56.38
2023-02-06T01:31:03.022Z,53.17
2023-02-06T01:36:09.098Z,54.79
2023-02-06T01:41:17.525Z,55.55
2023-02-06T01:46:21.646Z,55.90
2023-02-06T01:51:28.131Z,54.86
2023-02-06T01:56:38.105Z,56.16
2023-02-06T02:01:42.205Z,55.66
2023-02-06T02:06:52.762Z,54.77
2023-02-06T02:11:57.788Z,53.59
2023-02-06T02:17:09.350Z,53.02
2023-02-06T02:22:42.393Z,54.96
2023-02-06T02:28:00.492Z,54.63
2023-02-06T02:33:22.693Z,54.59
2023-02-06T02:38:38.204Z,55.38
2023-02-06T02:43:44.622Z,57.19
2023-02-06T02:48:53.618Z,53.88
2023-02-06T02:54:01.831Z,55.15
2023-02-06T02:59:11.846Z,53.81
2023-02-06T03:04:22.983Z,52.57
2023-02-06T03:09:43.252Z,53.12
2023-02-06T03:14:54.074Z,54.46
2023-02-06T03:20:00.876Z,54.92
2023-02-06T03:25:09.430Z,54.75
2023-02-06T03:30:15.297Z,55.27
2023-02-06T03:35:26.073Z,54.44
2023-02-06T03:40:31.980Z,53.99
2023-02-06T03:45:40.534Z,55.84
2023-02-06T03:50:45.752Z,57.16
2023-02-06T03:55:55.294Z,59.49
2023-02-06T04:01:03.759Z,58.50
2023-02-06T04:06:07.335Z,54.50
2023-02-06T04:11:14.219Z,54.90
2023-02-06T04:16:17.682Z,54.34
2023-02-06T04:21:21.128Z,57.03
2023-02-06T04:26:25.858Z,61.56
2023-02-06T04:31:29.281Z,63.87
2023-02-06T04:36:32.776Z,63.90
2023-02-06T04:41:42.231Z,62.34
2023-02-06T04:46:46.094Z,63.52
2023-02-06T04:51:49.709Z,62.69
2023-02-06T04:56:56.743Z,63.08
2023-02-06T05:02:00.147Z,63.07
2023-02-06T05:07:08.355Z,62.58
2023-02-06T05:12:15.411Z,62.43
2023-02-06T05:17:18.763Z,63.15
2023-02-06T05:22:22.349Z,62.03
2023-02-06T05:27:29.506Z,62.96
2023-02-06T05:32:35.223Z,63.09
2023-02-06T05:37:39.120Z,58.96
2023-02-06T05:42:43.911Z,61.19
2023-02-06T05:47:49.545Z,61.30
2023-02-06T05:52:52.904Z,61.68
2023-02-06T05:57:57.718Z,59.94
2023-02-06T06:03:03.534Z,60.62
2023-02-06T06:08:09.225Z,62.74
2023-02-06T06:13:13.952Z,65.67
2023-02-06T06:18:19.580Z,65.14
2023-02-06T06:23:23.034Z,66.31
2023-02-06T06:28:28.133Z,66.21
2023-02-06T06:33:31.582Z,70.41
2023-02-06T06:38:35.099Z,68.26
2023-02-06T06:43:39.965Z,71.57
2023-02-06T06:48:43.438Z,70.73
2023-02-06T06:53:46.864Z,72.64
2023-02-06T06:58:54.231Z,73.29
2023-02-06T07:03:59.821Z,71.75
2023-02-06T07:09:03.237Z,65.19
2023-02-06T07:14:08.200Z,63.03
2023-02-06T07:19:14.592Z,61.55
2023-02-06T07:24:21.148Z,63.45
2023-02-06T07:29:26.008Z,69.96
2023-02-06T07:34:29.536Z,77.69
2023-02-06T07:39:33.418Z,78.89
2023-02-06T07:44:40.539Z,70.77
2023-02-06T07:49:43.989Z,62.12
2023-02-06T07:54:47.463Z,58.33
2023-02-06T07:59:52.247Z,55.37
2023-02-06T08:04:56.049Z,55.00
2023-02-06T08:10:01.606Z,50.40
2023-02-06T08:15:09.154Z,48.48
2023-02-06T08:20:13.410Z,46.83
2023-02-06T08:25:19.562Z,48.66
2023-02-06T08:30:24.501Z,46.67
2023-02-06T08:35:30.237Z,48.66
2023-02-06T08:40:33.699Z,45.02
2023-02-06T08:45:38.919Z,43.69
2023-02-06T08:50:43.230Z,39.57
2023-02-06T08:55:49.210Z,37.11
2023-02-06T09:00:56.314Z,38.58
2023-02-06T09:06:09.516Z,38.85
2023-02-06T09:11:15.691Z,38.69
2023-02-06T09:16:23.905Z,37.57
2023-02-06T09:21:27.413Z,38.35
2023-02-06T09:26:32.026Z,34.55
2023-02-06T09:31:38.422Z,35.44
2023-02-06T09:36:44.372Z,34.87
2023-02-06T09:41:50.371Z,34.25
2023-02-06T09:46:59.873Z,34.10
2023-02-06T09:52:30.262Z,32.59
2023-02-06T09:57:38.922Z,32.24
2023-02-06T10:02:57.792Z,32.10
2023-02-06T10:08:11.569Z,32.61
2023-02-06T10:13:21.347Z,33.05
2023-02-06T10:18:31.017Z,32.63
2023-02-06T10:23:40.224Z,31.26
2023-02-06T10:28:45.589Z,31.36
2023-02-06T10:33:56.110Z,31.60
2023-02-06T10:39:18.168Z,32.52
2023-02-06T10:44:29.131Z,30.16
2023-02-06T10:49:38.349Z,29.03
2023-02-06T10:54:52.614Z,29.96
2023-02-06T11:00:00.704Z,27.63
2023-02-06T11:05:08.589Z,24.56
2023-02-06T11:10:16.500Z,22.92
2023-02-06T11:15:24.108Z,25.51
2023-02-06T11:20:32.628Z,29.96
2023-02-06T11:25:38.594Z,28.70
2023-02-06T11:30:54.201Z,30.59
2023-02-06T11:36:00.662Z,36.10
2023-02-06T11:41:05.947Z,38.76
2023-02-06T11:46:15.147Z,39.53
2023-02-06T11:51:19.925Z,44.24
2023-02-06T11:56:23.295Z,41.49
2023-02-06T12:01:26.733Z,44.14
2023-02-06T12:06:36.779Z,46.13
2023-02-06T12:11:49.327Z,43.60
2023-02-06T12:16:53.729Z,48.11
2023-02-06T12:22:07.054Z,42.82
2023-02-06T12:27:15.908Z,44.42
2023-02-06T12:32:22.988Z,45.23
2023-02-06T12:37:32.885Z,44.74
2023-02-06T12:42:43.101Z,43.90
2023-02-06T12:47:54.159Z,47.28
2023-02-06T12:53:03.080Z,45.84
2023-02-06T12:58:24.341Z,47.50
2023-02-06T13:03:30.210Z,45.73
2023-02-06T13:08:42.563Z,47.34
2023-02-06T13:13:49.690Z,47.99
2023-02-06T13:18:53.964Z,44.97
2023-02-06T13:24:15.915Z,41.51
2023-02-06T13:29:26.751Z,35.94
2023-02-06T13:34:35.809Z,35.13
2023-02-06T13:39:39.168Z,36.66
2023-02-06T13:44:44.057Z,36.07
2023-02-06T13:50:07.193Z,36.93
2023-02-06T13:55:21.825Z,38.16
2023-02-06T14:00:30.338Z,39.92
2023-02-06T14:05:46.496Z,40.50
2023-02-06T14:11:02.176Z,37.65
2023-02-06T14:16:19.211Z,37.07
2023-02-06T14:21:43.759Z,38.81
2023-02-06T14:26:55.308Z,38.38
2023-02-06T14:32:14.402Z,36.63
2023-02-06T14:37:41.094Z,37.30
2023-02-06T14:42:46.520Z,35.80
2023-02-06T14:47:55.688Z,42.82
2023-02-06T14:53:03.023Z,64.30
2023-02-06T14:58:19.245Z,52.34
2023-02-06T15:03:29.543Z,54.20
2023-02-06T15:08:33.655Z,47.07
2023-02-06T15:13:37.787Z,50.69
2023-02-06T15:18:42.823Z,54.35
2023-02-06T15:23:59.341Z,66.23
2023-02-06T15:29:04.131Z,77.70
2023-02-06T15:34:18.453Z,77.98
2023-02-06T15:39:22.227Z,75.30
2023-02-06T15:44:28.710Z,77.62
2023-02-06T15:49:38.450Z,79.46
2023-02-06T15:54:45.095Z,76.12
2023-02-06T15:59:48.662Z,80.20
2023-02-06T16:04:55.085Z,78.24
2023-02-06T16:10:15.200Z,78.63
2023-02-06T16:15:26.871Z,68.52
2023-02-06T16:20:39.768Z,64.57
2023-02-06T16:25:43.507Z,67.44
2023-02-06T16:30:54.350Z,70.06
2023-02-06T16:35:59.240Z,73.56
2023-02-06T16:41:02.709Z,77.98
2023-02-06T16:46:08.596Z,75.43
2023-02-06T16:51:17.804Z,76.52
2023-02-06T16:56:22.522Z,76.21
2023-02-06T17:01:29.713Z,76.35
2023-02-06T17:06:37.238Z,75.19
2023-02-06T17:11:43.675Z,73.09
2023-02-06T17:16:47.157Z,70.78
2023-02-06T17:21:52.017Z,72.46
2023-02-06T17:26:55.502Z,72.14
2023-02-06T17:31:59.187Z,71.45
2023-02-06T17:37:04.677Z,70.71
2023-02-06T17:42:08.321Z,69.98
2023-02-06T17:47:12.219Z,70.62
2023-02-06T17:52:17.770Z,72.91
2023-02-06T17:57:21.347Z,84.60
2023-02-06T18:02:24.882Z,78.71
2023-02-06T18:07:29.896Z,75.70
2023-02-06T18:12:33.425Z,75.75
2023-02-06T18:17:37.079Z,75.78
2023-02-06T18:22:42.208Z,80.57
2023-02-06T18:27:47.927Z,75.29
2023-02-06T18:32:51.366Z,76.19
2023-02-06T18:37:56.251Z,78.61
2023-02-06T18:43:02.812Z,76.80
2023-02-06T18:48:07.513Z,79.68
2023-02-06T18:53:12.422Z,79.43
2023-02-06T18:58:18.399Z,78.67
2023-02-06T19:03:22.320Z,77.51
2023-02-06T19:08:27.702Z,78.11
2023-02-06T19:13:31.240Z,70.29
2023-02-06T19:18:38.891Z,66.97
2023-02-06T19:23:46.680Z,63.95
2023-02-06T19:28:50.410Z,61.55
2023-02-06T19:33:58.967Z,60.83
2023-02-06T19:39:05.476Z,58.95
2023-02-06T19:44:13.297Z,58.09
2023-02-06T19:49:16.786Z,56.88
2023-02-06T19:54:22.830Z,61.87
2023-02-06T19:59:30.497Z,56.47
2023-02-06T20:04:37.964Z,56.61
2023-02-06T20:09:42.791Z,57.47
2023-02-06T20:14:51.145Z,58.53
2023-02-06T20:19:55.030Z,56.54
2023-02-06T20:25:00.016Z,54.26
2023-02-06T20:30:06.465Z,54.34
2023-02-06T20:35:09.985Z,54.49
2023-02-06T20:40:14.824Z,53.69
2023-02-06T20:45:18.408Z,50.60
2023-02-06T20:50:21.862Z,50.61
2023-02-06T20:55:27.230Z,52.96
2023-02-06T21:00:30.946Z,52.31
2023-02-06T21:05:34.605Z,51.37
2023-02-06T21:10:39.755Z,50.95
2023-02-06T21:15:43.437Z,51.33
2023-02-06T21:20:47.092Z,50.67
2023-02-06T21:25:55.564Z,51.43
2023-02-06T21:31:03.287Z,52.05
2023-02-06T21:36:07.900Z,52.18
2023-02-06T21:41:14.814Z,52.67
2023-02-06T21:46:18.308Z,53.73
2023-02-06T21:51:23.236Z,55.22
2023-02-06T21:56:30.693Z,56.28
2023-02-06T22:01:41.010Z,57.07
2023-02-06T22:06:44.569Z,54.65
2023-02-06T22:11:49.389Z,53.53
2023-02-06T22:16:52.782Z,53.30
2023-02-06T22:21:58.659Z,53.78
2023-02-06T22:27:03.387Z,54.42
2023-02-06T22:32:07.325Z,52.80
2023-02-06T22:37:10.889Z,51.27
2023-02-06T22:42:15.791Z,51.00
2023-02-06T22:47:19.136Z,55.66
2023-02-06T22:52:40.111Z,55.23
2023-02-06T22:57:45.162Z,57.50
2023-02-06T23:02:51.009Z,58.23
2023-02-06T23:07:54.463Z,58.65
2023-02-06T23:12:59.330Z,57.28
2023-02-06T23:18:02.990Z,59.78
2023-02-06T23:23:06.797Z,60.97
2023-02-06T23:28:11.682Z,60.56
2023-02-06T23:33:16.057Z,61.06
2023-02-06T23:38:19.894Z,61.35
2023-02-06T23:43:27.137Z,62.35
2023-02-06T23:48:33.350Z,62.87
2023-02-06T23:53:39.172Z,64.72
2023-02-06T23:58:44.105Z,65.65
